createdAt,value
2022-08-30T00:00:00.058Z,61.65
2022-08-30T00:01:00.039Z,61.74
2022-08-30T00:02:00.039Z,61.74
2022-08-30T00:03:00.239Z,61.65
2022-08-30T00:04:00.060Z,61.74
2022-08-30T00:05:00.006Z,61.74
2022-08-30T00:05:59.988Z,61.67
2022-08-30T00:06:59.988Z,61.67
2022-08-30T00:07:59.989Z,61.37
2022-08-30T00:08:59.975Z,61.27
2022-08-30T00:09:59.953Z,61.17
2022-08-30T00:10:59.935Z,60.87
2022-08-30T00:11:59.921Z,60.87
2022-08-30T00:12:59.910Z,60.87
2022-08-30T00:13:59.930Z,60.87
2022-08-30T00:14:59.901Z,61.07
2022-08-30T00:15:59.934Z,60.97
2022-08-30T00:16:59.862Z,61.27
2022-08-30T00:17:59.871Z,61.47
2022-08-30T00:18:59.843Z,61.37
2022-08-30T00:19:59.835Z,61.37
2022-08-30T00:20:59.845Z,61.50
2022-08-30T00:21:59.803Z,61.60
2022-08-30T00:22:59.812Z,61.70
2022-08-30T00:23:59.793Z,61.70
2022-08-30T00:24:59.770Z,61.80
2022-08-30T00:25:59.765Z,62.01
2022-08-30T00:26:59.754Z,62.10
2022-08-30T00:27:59.754Z,62.10
2022-08-30T00:28:59.735Z,62.30
2022-08-30T00:29:59.723Z,62.41
2022-08-30T00:30:59.737Z,62.71
2022-08-30T00:31:59.714Z,62.71
2022-08-30T00:32:59.707Z,62.81
2022-08-30T00:33:59.678Z,62.71
2022-08-30T00:34:59.666Z,62.71
2022-08-30T00:35:59.658Z,62.94
2022-08-30T00:36:59.647Z,62.84
2022-08-30T00:37:59.639Z,62.64
2022-08-30T00:38:59.619Z,62.54
2022-08-30T00:39:59.670Z,62.44
2022-08-30T00:40:59.599Z,62.44
2022-08-30T00:41:59.610Z,62.54
2022-08-30T00:42:59.950Z,62.84
2022-08-30T00:44:00.896Z,63.24
2022-08-30T00:44:59.648Z,63.24
2022-08-30T00:45:59.604Z,63.34
2022-08-30T00:46:59.602Z,63.34
2022-08-30T00:47:59.609Z,63.65
2022-08-30T00:48:59.511Z,64.55
2022-08-30T00:49:59.502Z,64.45
2022-08-30T00:50:59.497Z,64.28
2022-08-30T00:51:59.491Z,64.18
2022-08-30T00:52:59.486Z,63.98
2022-08-30T00:53:59.492Z,63.78
2022-08-30T00:54:59.450Z,63.57
2022-08-30T00:55:59.465Z,63.47
2022-08-30T00:56:59.444Z,63.47
2022-08-30T00:57:59.426Z,63.37
2022-08-30T00:58:59.405Z,63.37
2022-08-30T00:59:59.401Z,63.37
2022-08-30T01:00:59.384Z,63.47
2022-08-30T01:01:59.424Z,63.67
2022-08-30T01:02:59.505Z,63.57
2022-08-30T01:03:59.353Z,63.47
2022-08-30T01:04:59.336Z,63.37
2022-08-30T01:05:59.334Z,63.27
2022-08-30T01:06:59.325Z,63.37
2022-08-30T01:07:59.316Z,63.37
2022-08-30T01:08:59.299Z,63.47
2022-08-30T01:09:59.288Z,63.57
2022-08-30T01:10:59.276Z,63.57
2022-08-30T01:11:59.307Z,63.87
2022-08-30T01:12:59.347Z,63.98
2022-08-30T01:13:59.250Z,64.18
2022-08-30T01:14:59.228Z,64.38
2022-08-30T01:15:59.237Z,64.69
2022-08-30T01:16:59.219Z,64.78
2022-08-30T01:17:59.200Z,64.98
2022-08-30T01:18:59.198Z,65.09
2022-08-30T01:19:59.189Z,65.09
2022-08-30T01:20:59.170Z,64.98
2022-08-30T01:21:59.171Z,64.89
2022-08-30T01:22:59.140Z,64.89
2022-08-30T01:23:59.141Z,64.48
2022-08-30T01:24:59.120Z,64.38
2022-08-30T01:25:59.112Z,64.28
2022-08-30T01:26:59.142Z,64.18
2022-08-30T01:27:59.083Z,64.18
2022-08-30T01:28:59.082Z,64.48
2022-08-30T01:29:59.074Z,64.48
2022-08-30T01:30:59.113Z,64.58
2022-08-30T01:31:59.069Z,64.69
2022-08-30T01:32:59.053Z,64.78
2022-08-30T01:33:59.024Z,64.89
2022-08-30T01:34:59.028Z,65.32
2022-08-30T01:35:59.004Z,66.02
2022-08-30T01:36:59.004Z,66.93
2022-08-30T01:37:58.985Z,67.74
2022-08-30T01:38:58.981Z,67.84
2022-08-30T01:39:59.014Z,67.94
2022-08-30T01:40:58.955Z,68.04
2022-08-30T01:41:58.946Z,68.37
2022-08-30T01:42:58.927Z,68.77
2022-08-30T01:43:58.916Z,69.08
2022-08-30T01:44:58.907Z,69.28
2022-08-30T01:45:58.914Z,69.48
2022-08-30T01:46:58.928Z,69.28
2022-08-30T01:47:59.870Z,69.18
2022-08-30T01:48:58.859Z,69.21
2022-08-30T01:49:58.858Z,69.21
2022-08-30T01:50:58.851Z,69.11
2022-08-30T01:52:01.095Z,69.11
2022-08-30T01:52:58.869Z,69.21
2022-08-30T01:53:58.817Z,69.21
2022-08-30T01:54:58.801Z,69.21
2022-08-30T01:55:58.803Z,69.21
2022-08-30T01:56:58.790Z,69.31
2022-08-30T01:57:58.768Z,69.31
2022-08-30T01:59:02.615Z,69.55
2022-08-30T01:59:58.752Z,69.85
2022-08-30T02:00:58.772Z,70.06
2022-08-30T02:01:58.735Z,70.26
2022-08-30T02:02:58.722Z,70.26
2022-08-30T02:03:58.797Z,70.26
2022-08-30T02:04:58.741Z,70.26
2022-08-30T02:05:58.695Z,70.36
2022-08-30T02:06:58.669Z,70.36
2022-08-30T02:07:58.683Z,70.46
2022-08-30T02:08:58.644Z,70.49
2022-08-30T02:09:58.643Z,70.49
2022-08-30T02:10:58.625Z,70.49
2022-08-30T02:11:58.626Z,70.79
2022-08-30T02:12:58.634Z,70.79
2022-08-30T02:13:58.626Z,70.79
2022-08-30T02:14:58.593Z,70.79
2022-08-30T02:15:58.574Z,70.89
2022-08-30T02:16:58.616Z,71.00
2022-08-30T02:17:58.577Z,71.00
2022-08-30T02:18:58.536Z,70.83
2022-08-30T02:19:58.527Z,70.73
2022-08-30T02:20:58.521Z,70.73
2022-08-30T02:21:58.508Z,70.62
2022-08-30T02:23:01.166Z,70.73
2022-08-30T02:23:58.538Z,70.83
2022-08-30T02:24:58.469Z,70.83
2022-08-30T02:25:58.470Z,70.83
2022-08-30T02:26:58.478Z,70.83
2022-08-30T02:27:58.472Z,70.93
2022-08-30T02:28:59.098Z,71.03
2022-08-30T02:29:58.419Z,71.03
2022-08-30T02:30:58.473Z,71.26
2022-08-30T02:31:58.400Z,71.37
2022-08-30T02:32:58.399Z,71.57
2022-08-30T02:33:58.409Z,71.77
2022-08-30T02:34:58.421Z,71.87
2022-08-30T02:35:58.402Z,71.97
2022-08-30T02:36:58.341Z,72.17
2022-08-30T02:37:58.351Z,72.08
2022-08-30T02:38:58.323Z,72.48
2022-08-30T02:39:58.372Z,72.68
2022-08-30T02:40:58.303Z,72.78
2022-08-30T02:41:58.293Z,72.58
2022-08-30T02:42:58.284Z,72.58
2022-08-30T02:43:58.273Z,72.68
2022-08-30T02:44:58.254Z,72.58
2022-08-30T02:45:58.291Z,72.68
2022-08-30T02:46:58.294Z,72.88
2022-08-30T02:47:58.235Z,72.88
2022-08-30T02:49:00.306Z,72.88
2022-08-30T02:49:58.214Z,72.99
2022-08-30T02:50:58.198Z,73.19
2022-08-30T02:51:58.205Z,73.43
2022-08-30T02:52:58.185Z,73.32
2022-08-30T02:53:58.186Z,73.43
2022-08-30T02:54:58.145Z,73.32
2022-08-30T02:55:58.178Z,73.43
2022-08-30T02:56:58.146Z,73.43
2022-08-30T02:57:58.126Z,73.52
2022-08-30T02:58:58.106Z,73.52
2022-08-30T02:59:58.111Z,73.63
2022-08-30T03:00:58.148Z,73.63
2022-08-30T03:01:58.098Z,73.63
2022-08-30T03:02:58.089Z,73.83
2022-08-30T03:03:58.069Z,73.83
2022-08-30T03:04:58.105Z,74.03
2022-08-30T03:05:58.044Z,74.33
2022-08-30T03:06:58.028Z,74.84
2022-08-30T03:07:58.009Z,75.34
2022-08-30T03:08:57.989Z,75.55
2022-08-30T03:09:57.999Z,75.34
2022-08-30T03:10:57.980Z,75.34
2022-08-30T03:11:57.991Z,75.14
2022-08-30T03:12:57.951Z,74.94
2022-08-30T03:13:57.952Z,74.50
2022-08-30T03:14:57.930Z,74.10
2022-08-30T03:15:57.924Z,73.69
2022-08-30T03:16:57.966Z,73.69
2022-08-30T03:17:57.959Z,73.90
2022-08-30T03:18:57.892Z,73.69
2022-08-30T03:19:57.881Z,73.59
2022-08-30T03:20:57.863Z,73.49
2022-08-30T03:21:57.882Z,73.39
2022-08-30T03:22:57.843Z,73.28
2022-08-30T03:23:57.837Z,73.19
2022-08-30T03:24:57.817Z,73.19
2022-08-30T03:25:57.804Z,73.19
2022-08-30T03:26:57.814Z,73.32
2022-08-30T03:27:57.786Z,73.43
2022-08-30T03:28:57.766Z,73.63
2022-08-30T03:29:57.803Z,73.63
2022-08-30T03:30:57.758Z,73.72
2022-08-30T03:31:57.833Z,74.33
2022-08-30T03:32:57.736Z,74.54
2022-08-30T03:33:57.716Z,74.74
2022-08-30T03:34:57.706Z,74.84
2022-08-30T03:35:57.705Z,75.04
2022-08-30T03:36:57.700Z,75.18
2022-08-30T03:37:57.708Z,75.18
2022-08-30T03:38:57.658Z,75.18
2022-08-30T03:39:57.682Z,75.18
2022-08-30T03:40:57.645Z,75.28
2022-08-30T03:41:57.640Z,75.28
2022-08-30T03:42:57.619Z,75.28
2022-08-30T03:43:59.877Z,75.18
2022-08-30T03:44:57.590Z,75.18
2022-08-30T03:45:57.637Z,75.07
2022-08-30T03:46:57.598Z,75.07
2022-08-30T03:47:57.601Z,75.07
2022-08-30T03:48:57.550Z,75.07
2022-08-30T03:49:57.558Z,75.11
2022-08-30T03:50:57.530Z,75.21
2022-08-30T03:51:57.520Z,75.21
2022-08-30T03:52:57.531Z,75.21
2022-08-30T03:53:57.511Z,75.21
2022-08-30T03:54:57.482Z,75.11
2022-08-30T03:55:57.482Z,75.01
2022-08-30T03:56:57.461Z,75.21
2022-08-30T03:57:57.475Z,75.31
2022-08-30T03:58:57.443Z,75.21
2022-08-30T03:59:57.438Z,75.11
2022-08-30T04:00:57.440Z,75.11
2022-08-30T04:01:57.451Z,75.21
2022-08-30T04:02:57.407Z,75.42
2022-08-30T04:03:57.415Z,75.52
2022-08-30T04:04:57.403Z,75.42
2022-08-30T04:05:57.395Z,75.72
2022-08-30T04:06:57.354Z,75.62
2022-08-30T04:07:57.354Z,75.52
2022-08-30T04:08:57.334Z,75.52
2022-08-30T04:09:57.326Z,75.55
2022-08-30T04:10:57.306Z,75.55
2022-08-30T04:11:57.298Z,75.55
2022-08-30T04:12:57.296Z,75.55
2022-08-30T04:13:57.278Z,75.55
2022-08-30T04:14:57.265Z,75.65
2022-08-30T04:15:57.269Z,75.96
2022-08-30T04:16:57.248Z,76.16
2022-08-30T04:17:57.247Z,76.26
2022-08-30T04:18:57.217Z,76.26
2022-08-30T04:19:57.219Z,76.56
2022-08-30T04:20:57.200Z,76.67
2022-08-30T04:21:57.207Z,76.77
2022-08-30T04:22:57.169Z,76.87
2022-08-30T04:23:57.168Z,76.67
2022-08-30T04:24:57.146Z,76.56
2022-08-30T04:25:57.150Z,76.60
2022-08-30T04:26:57.151Z,76.60
2022-08-30T04:27:57.120Z,76.60
2022-08-30T04:28:57.114Z,76.60
2022-08-30T04:29:57.103Z,76.60
2022-08-30T04:30:57.084Z,76.60
2022-08-30T04:31:57.174Z,76.60
2022-08-30T04:32:58.897Z,76.70
2022-08-30T04:33:57.052Z,76.70
2022-08-30T04:34:57.040Z,76.80
2022-08-30T04:35:57.073Z,76.80
2022-08-30T04:36:57.021Z,76.84
2022-08-30T04:37:57.013Z,76.84
2022-08-30T04:38:57.013Z,76.84
2022-08-30T04:39:57.070Z,76.94
2022-08-30T04:40:57.040Z,77.04
2022-08-30T04:41:56.984Z,77.14
2022-08-30T04:42:56.963Z,77.34
2022-08-30T04:43:56.982Z,77.45
2022-08-30T04:44:57.154Z,77.75
2022-08-30T04:45:57.006Z,77.89
2022-08-30T04:46:56.917Z,78.09
2022-08-30T04:47:57.238Z,78.19
2022-08-30T04:48:56.875Z,78.40
2022-08-30T04:49:56.882Z,78.50
2022-08-30T04:50:56.864Z,78.60
2022-08-30T04:51:56.864Z,78.50
2022-08-30T04:52:56.847Z,78.40
2022-08-30T04:53:56.894Z,78.40
2022-08-30T04:54:56.826Z,78.50
2022-08-30T04:55:56.816Z,78.50
2022-08-30T04:56:56.868Z,78.60
2022-08-30T04:57:56.795Z,78.70
2022-08-30T04:58:56.867Z,78.91
2022-08-30T04:59:56.768Z,79.00
2022-08-30T05:00:56.794Z,79.00
2022-08-30T05:01:56.770Z,79.11
2022-08-30T05:02:56.738Z,79.31
2022-08-30T05:03:56.718Z,79.31
2022-08-30T05:04:56.723Z,79.31
2022-08-30T05:05:56.690Z,79.31
2022-08-30T05:06:56.688Z,79.31
2022-08-30T05:07:56.680Z,79.31
2022-08-30T05:08:56.667Z,79.41
2022-08-30T05:09:56.650Z,79.41
2022-08-30T05:10:56.641Z,79.41
2022-08-30T05:11:56.759Z,79.51
2022-08-30T05:12:56.630Z,79.51
2022-08-30T05:13:56.620Z,79.51
2022-08-30T05:14:56.611Z,79.72
2022-08-30T05:15:56.630Z,79.72
2022-08-30T05:16:56.573Z,79.82
2022-08-30T05:17:56.573Z,79.78
2022-08-30T05:18:56.552Z,79.68
2022-08-30T05:19:56.539Z,79.68
2022-08-30T05:20:56.534Z,79.68
2022-08-30T05:21:56.515Z,79.47
2022-08-30T05:22:56.523Z,79.58
2022-08-30T05:23:56.502Z,79.58
2022-08-30T05:24:56.493Z,79.68
2022-08-30T05:25:56.473Z,79.68
2022-08-30T05:26:56.465Z,79.68
2022-08-30T05:27:56.453Z,79.68
2022-08-30T05:28:56.443Z,79.74
2022-08-30T05:29:56.437Z,79.64
2022-08-30T05:30:56.423Z,79.64
2022-08-30T05:31:56.428Z,79.64
2022-08-30T05:32:56.407Z,79.44
2022-08-30T05:33:56.436Z,79.24
2022-08-30T05:34:56.377Z,79.24
2022-08-30T05:35:56.366Z,79.24
2022-08-30T05:36:56.367Z,79.24
2022-08-30T05:37:56.356Z,79.13
2022-08-30T05:38:56.335Z,78.93
2022-08-30T05:39:56.333Z,78.69
2022-08-30T05:40:56.308Z,78.59
2022-08-30T05:41:56.307Z,78.39
2022-08-30T05:42:56.308Z,78.39
2022-08-30T05:43:56.291Z,78.39
2022-08-30T05:44:56.259Z,78.39
2022-08-30T05:45:56.259Z,78.69
2022-08-30T05:46:56.239Z,78.89
2022-08-30T05:47:56.289Z,79.00
2022-08-30T05:48:56.220Z,79.00
2022-08-30T05:49:56.213Z,79.00
2022-08-30T05:50:56.201Z,79.10
2022-08-30T05:51:56.190Z,79.10
2022-08-30T05:52:56.201Z,78.96
2022-08-30T05:53:56.171Z,79.06
2022-08-30T05:54:56.151Z,79.06
2022-08-30T05:55:56.150Z,79.06
2022-08-30T05:56:56.166Z,79.06
2022-08-30T05:57:56.124Z,79.06
2022-08-30T05:58:56.113Z,78.96
2022-08-30T05:59:56.106Z,78.86
2022-08-30T06:00:56.094Z,78.75
2022-08-30T06:01:56.132Z,78.62
2022-08-30T06:02:56.151Z,78.62
2022-08-30T06:03:58.379Z,78.62
2022-08-30T06:04:56.052Z,78.62
2022-08-30T06:05:56.047Z,78.72
2022-08-30T06:06:56.032Z,78.72
2022-08-30T06:07:56.016Z,78.88
2022-08-30T06:08:56.005Z,78.88
2022-08-30T06:09:55.994Z,78.88
2022-08-30T06:10:55.986Z,78.78
2022-08-30T06:11:55.986Z,78.55
2022-08-30T06:12:55.961Z,78.34
2022-08-30T06:13:55.946Z,77.94
2022-08-30T06:14:55.937Z,77.64
2022-08-30T06:15:56.018Z,76.99
2022-08-30T06:16:55.957Z,76.59
2022-08-30T06:17:55.910Z,76.08
2022-08-30T06:18:55.901Z,75.54
2022-08-30T06:19:55.888Z,74.93
2022-08-30T06:20:55.895Z,74.69
2022-08-30T06:21:55.878Z,74.69
2022-08-30T06:22:55.847Z,74.69
2022-08-30T06:23:55.891Z,74.36
2022-08-30T06:24:58.005Z,74.36
2022-08-30T06:25:55.823Z,74.16
2022-08-30T06:26:55.848Z,73.72
2022-08-30T06:27:56.597Z,73.42
2022-08-30T06:28:55.811Z,72.98
2022-08-30T06:29:55.771Z,72.64
2022-08-30T06:30:55.776Z,71.73
2022-08-30T06:31:55.772Z,71.20
2022-08-30T06:32:55.732Z,70.46
2022-08-30T06:33:55.732Z,69.96
2022-08-30T06:34:55.714Z,69.82
2022-08-30T06:36:00.445Z,69.82
2022-08-30T06:36:56.703Z,69.69
2022-08-30T06:37:55.692Z,69.49
2022-08-30T06:38:55.674Z,69.15
2022-08-30T06:39:55.664Z,68.32
2022-08-30T06:40:55.657Z,66.91
2022-08-30T06:41:55.657Z,66.08
2022-08-30T06:42:55.626Z,65.34
2022-08-30T06:43:55.633Z,64.94
2022-08-30T06:44:55.616Z,65.21
2022-08-30T06:45:55.597Z,64.28
2022-08-30T06:46:55.651Z,63.01
2022-08-30T06:47:55.632Z,62.58
2022-08-30T06:48:56.177Z,61.78
2022-08-30T06:49:55.586Z,61.55
2022-08-30T06:50:55.557Z,60.42
2022-08-30T06:51:55.540Z,59.42
2022-08-30T06:52:55.550Z,59.49
2022-08-30T06:53:55.521Z,58.80
2022-08-30T06:54:55.496Z,57.46
2022-08-30T06:55:55.500Z,57.26
2022-08-30T06:56:58.609Z,57.14
2022-08-30T06:57:55.472Z,56.94
2022-08-30T06:58:55.461Z,56.21
2022-08-30T06:59:57.289Z,55.71
2022-08-30T07:00:55.433Z,56.11
2022-08-30T07:01:55.520Z,56.59
2022-08-30T07:02:55.514Z,56.09
2022-08-30T07:03:55.418Z,55.76
2022-08-30T07:04:55.394Z,55.26
2022-08-30T07:05:55.396Z,55.36
2022-08-30T07:06:55.386Z,54.14
2022-08-30T07:07:55.363Z,53.74
2022-08-30T07:08:56.343Z,53.34
2022-08-30T07:09:55.336Z,53.44
2022-08-30T07:10:55.327Z,53.34
2022-08-30T07:11:55.329Z,53.64
2022-08-30T07:12:55.308Z,53.04
2022-08-30T07:13:55.310Z,53.64
2022-08-30T07:14:55.291Z,54.74
2022-08-30T07:15:55.324Z,53.52
2022-08-30T07:16:55.269Z,53.44
2022-08-30T07:17:55.262Z,53.31
2022-08-30T07:18:55.245Z,53.04
2022-08-30T07:19:55.235Z,53.34
2022-08-30T07:20:55.216Z,52.64
2022-08-30T07:21:55.212Z,54.79
2022-08-30T07:22:55.189Z,55.97
2022-08-30T07:23:55.191Z,57.82
2022-08-30T07:24:55.164Z,59.18
2022-08-30T07:25:55.176Z,59.58
2022-08-30T07:26:55.155Z,60.01
2022-08-30T07:27:55.144Z,59.70
2022-08-30T07:28:56.198Z,59.78
2022-08-30T07:29:55.127Z,59.68
2022-08-30T07:30:55.106Z,59.81
2022-08-30T07:31:55.117Z,59.81
2022-08-30T07:32:55.077Z,62.94
2022-08-30T07:33:55.076Z,61.27
2022-08-30T07:34:55.058Z,61.70
2022-08-30T07:35:55.129Z,62.50
2022-08-30T07:36:55.039Z,62.40
2022-08-30T07:37:55.051Z,62.60
2022-08-30T07:38:55.030Z,64.01
2022-08-30T07:39:55.020Z,62.80
2022-08-30T07:40:55.020Z,61.70
2022-08-30T07:41:54.992Z,63.07
2022-08-30T07:42:54.972Z,62.57
2022-08-30T07:43:54.973Z,62.27
2022-08-30T07:44:56.946Z,62.77
2022-08-30T07:45:55.108Z,62.87
2022-08-30T07:46:55.069Z,62.44
2022-08-30T07:47:54.935Z,61.44
2022-08-30T07:48:54.916Z,61.64
2022-08-30T07:49:54.906Z,62.84
2022-08-30T07:50:58.251Z,61.44
2022-08-30T07:51:55.886Z,61.44
2022-08-30T07:52:54.878Z,62.34
2022-08-30T07:53:54.867Z,62.14
2022-08-30T07:54:54.848Z,61.14
2022-08-30T07:55:54.873Z,62.94
2022-08-30T07:56:54.829Z,62.61
2022-08-30T07:57:54.831Z,64.31
2022-08-30T07:58:54.813Z,60.91
2022-08-30T07:59:54.803Z,61.11
2022-08-30T08:00:54.800Z,60.31
2022-08-30T08:01:54.818Z,63.11
2022-08-30T08:02:54.826Z,62.61
2022-08-30T08:03:54.757Z,61.85
2022-08-30T08:04:54.744Z,60.72
2022-08-30T08:05:54.742Z,58.76
2022-08-30T08:06:54.722Z,59.04
2022-08-30T08:07:54.723Z,58.14
2022-08-30T08:08:54.704Z,57.87
2022-08-30T08:09:54.724Z,58.09
2022-08-30T08:10:54.703Z,58.12
2022-08-30T08:11:54.834Z,59.32
2022-08-30T08:12:54.668Z,59.85
2022-08-30T08:13:54.679Z,60.55
2022-08-30T08:14:54.637Z,59.35
2022-08-30T08:15:54.674Z,61.05
2022-08-30T08:16:54.739Z,60.95
2022-08-30T08:17:54.598Z,60.02
2022-08-30T08:18:54.597Z,59.79
2022-08-30T08:19:54.581Z,59.66
2022-08-30T08:20:54.596Z,59.53
2022-08-30T08:22:15.289Z,57.91
2022-08-30T08:22:55.561Z,57.01
2022-08-30T08:23:54.543Z,57.91
2022-08-30T08:24:54.560Z,57.93
2022-08-30T08:25:54.591Z,57.87
2022-08-30T08:26:54.513Z,58.69
2022-08-30T08:27:54.525Z,59.39
2022-08-30T08:28:54.493Z,59.59
2022-08-30T08:29:54.474Z,59.12
2022-08-30T08:30:54.532Z,59.52
2022-08-30T08:31:54.455Z,60.02
2022-08-30T08:32:54.454Z,59.92
2022-08-30T08:33:54.461Z,60.69
2022-08-30T08:34:54.428Z,59.66
2022-08-30T08:35:54.426Z,57.91
2022-08-30T08:36:54.396Z,57.68
2022-08-30T08:37:54.388Z,57.68
2022-08-30T08:38:54.392Z,56.81
2022-08-30T08:39:54.372Z,57.81
2022-08-30T08:40:54.451Z,58.84
2022-08-30T08:41:54.350Z,58.84
2022-08-30T08:42:54.339Z,57.93
2022-08-30T08:43:54.339Z,58.17
2022-08-30T08:44:55.633Z,57.46
2022-08-30T08:45:54.365Z,59.66
2022-08-30T08:46:54.315Z,59.36
2022-08-30T08:47:54.296Z,58.86
2022-08-30T08:49:01.418Z,59.47
2022-08-30T08:49:55.263Z,58.86
2022-08-30T08:50:54.268Z,59.86
2022-08-30T08:51:54.235Z,60.27
2022-08-30T08:52:54.235Z,60.86
2022-08-30T08:53:54.215Z,61.43
2022-08-30T08:54:54.215Z,58.54
2022-08-30T08:55:54.210Z,57.93
2022-08-30T08:56:54.188Z,58.51
2022-08-30T08:57:54.180Z,57.61
2022-08-30T08:58:54.196Z,58.31
2022-08-30T08:59:54.169Z,57.21
2022-08-30T09:00:54.189Z,57.41
2022-08-30T09:01:54.217Z,57.21
2022-08-30T09:02:56.014Z,58.11
2022-08-30T09:03:54.111Z,57.81
2022-08-30T09:04:54.158Z,57.91
2022-08-30T09:05:54.113Z,58.21
2022-08-30T09:06:54.082Z,58.38
2022-08-30T09:07:54.069Z,56.79
2022-08-30T09:08:54.063Z,56.38
2022-08-30T09:09:54.042Z,56.81
2022-08-30T09:10:54.073Z,58.01
2022-08-30T09:11:54.026Z,59.38
2022-08-30T09:12:59.347Z,56.48
2022-08-30T09:13:55.004Z,57.18
2022-08-30T09:14:55.663Z,55.88
2022-08-30T09:15:55.105Z,56.68
2022-08-30T09:16:53.986Z,57.11
2022-08-30T09:17:53.960Z,56.61
2022-08-30T09:18:54.889Z,56.91
2022-08-30T09:19:53.951Z,56.51
2022-08-30T09:20:53.948Z,57.51
2022-08-30T09:21:53.928Z,57.81
2022-08-30T09:22:53.919Z,58.31
2022-08-30T09:23:53.908Z,56.41
2022-08-30T09:24:53.900Z,56.56
2022-08-30T09:25:53.901Z,55.61
2022-08-30T09:26:53.871Z,52.57
2022-08-30T09:27:53.859Z,51.15
2022-08-30T09:28:53.962Z,52.51
2022-08-30T09:29:53.846Z,51.97
2022-08-30T09:30:53.869Z,50.85
2022-08-30T09:32:10.043Z,51.05
2022-08-30T09:32:54.804Z,51.97
2022-08-30T09:33:53.785Z,51.87
2022-08-30T09:34:53.794Z,51.17
2022-08-30T09:35:54.111Z,51.79
2022-08-30T09:36:53.784Z,51.40
2022-08-30T09:37:53.759Z,52.00
2022-08-30T09:38:53.756Z,51.40
2022-08-30T09:39:53.755Z,51.62
2022-08-30T09:40:53.739Z,52.04
2022-08-30T09:41:53.718Z,51.82
2022-08-30T09:42:53.709Z,52.12
2022-08-30T09:43:53.699Z,51.89
2022-08-30T09:44:53.690Z,51.77
2022-08-30T09:45:53.729Z,50.58
2022-08-30T09:46:53.673Z,50.16
2022-08-30T09:47:53.662Z,50.75
2022-08-30T09:48:53.663Z,50.58
2022-08-30T09:49:53.634Z,51.30
2022-08-30T09:50:53.654Z,51.20
2022-08-30T09:51:53.614Z,50.68
2022-08-30T09:52:55.525Z,50.50
2022-08-30T09:54:16.611Z,50.01
2022-08-30T09:54:54.594Z,51.20
2022-08-30T09:55:53.596Z,50.52
2022-08-30T09:56:53.575Z,52.04
2022-08-30T09:57:53.556Z,52.84
2022-08-30T09:58:53.545Z,52.76
2022-08-30T09:59:53.540Z,52.86
2022-08-30T10:00:53.605Z,52.97
2022-08-30T10:01:53.519Z,51.45
2022-08-30T10:02:53.521Z,51.52
2022-08-30T10:03:53.510Z,52.09
2022-08-30T10:04:53.492Z,50.05
2022-08-30T10:05:53.591Z,49.34
2022-08-30T10:06:53.522Z,47.63
2022-08-30T10:07:53.740Z,47.90
2022-08-30T10:08:53.442Z,47.71
2022-08-30T10:09:53.442Z,47.11
2022-08-30T10:10:53.461Z,48.08
2022-08-30T10:11:53.424Z,46.79
2022-08-30T10:12:53.405Z,46.61
2022-08-30T10:13:53.418Z,47.21
2022-08-30T10:14:53.395Z,47.31
2022-08-30T10:15:53.376Z,47.19
2022-08-30T10:16:53.427Z,46.79
2022-08-30T10:17:53.368Z,46.02
2022-08-30T10:18:53.347Z,46.71
2022-08-30T10:19:53.349Z,46.83
2022-08-30T10:20:53.347Z,48.05
2022-08-30T10:21:53.330Z,47.35
2022-08-30T10:22:53.341Z,46.86
2022-08-30T10:23:53.309Z,47.53
2022-08-30T10:24:53.292Z,47.31
2022-08-30T10:25:53.312Z,47.09
2022-08-30T10:26:53.271Z,45.32
2022-08-30T10:27:53.262Z,46.44
2022-08-30T10:28:53.252Z,47.83
2022-08-30T10:29:53.274Z,47.13
2022-08-30T10:30:53.235Z,47.55
2022-08-30T10:31:53.236Z,47.45
2022-08-30T10:32:53.217Z,48.44
2022-08-30T10:33:53.205Z,48.07
2022-08-30T10:34:53.216Z,48.57
2022-08-30T10:35:53.234Z,47.28
2022-08-30T10:36:53.168Z,47.45
2022-08-30T10:37:53.167Z,46.44
2022-08-30T10:38:53.150Z,47.03
2022-08-30T10:39:53.139Z,46.04
2022-08-30T10:40:53.139Z,45.94
2022-08-30T10:41:53.130Z,46.83
2022-08-30T10:42:53.121Z,48.40
2022-08-30T10:43:53.127Z,49.15
2022-08-30T10:44:53.128Z,44.84
2022-08-30T10:45:53.092Z,43.83
2022-08-30T10:46:53.075Z,45.00
2022-08-30T10:47:53.063Z,44.40
2022-08-30T10:48:53.042Z,44.20
2022-08-30T10:49:53.043Z,43.71
2022-08-30T10:50:53.043Z,43.80
2022-08-30T10:51:53.027Z,43.21
2022-08-30T10:52:53.015Z,43.13
2022-08-30T10:53:53.025Z,46.28
2022-08-30T10:54:52.986Z,43.59
2022-08-30T10:55:53.000Z,44.48
2022-08-30T10:56:53.010Z,44.87
2022-08-30T10:57:52.966Z,44.28
2022-08-30T10:58:52.948Z,43.88
2022-08-30T10:59:52.961Z,44.09
2022-08-30T11:00:53.049Z,44.70
2022-08-30T11:01:52.956Z,43.51
2022-08-30T11:02:52.929Z,43.33
2022-08-30T11:03:52.910Z,43.35
2022-08-30T11:04:52.911Z,46.03
2022-08-30T11:05:52.951Z,44.45
2022-08-30T11:06:54.012Z,49.40
2022-08-30T11:07:52.883Z,43.93
2022-08-30T11:08:52.865Z,44.92
2022-08-30T11:09:52.846Z,44.23
2022-08-30T11:10:52.943Z,44.84
2022-08-30T11:11:52.835Z,45.14
2022-08-30T11:12:52.825Z,45.01
2022-08-30T11:13:57.002Z,45.37
2022-08-30T11:14:52.803Z,43.57
2022-08-30T11:15:52.805Z,42.16
2022-08-30T11:16:52.789Z,42.05
2022-08-30T11:17:52.787Z,42.24
2022-08-30T11:18:52.795Z,41.73
2022-08-30T11:19:52.772Z,41.73
2022-08-30T11:20:52.759Z,40.33
2022-08-30T11:21:52.729Z,39.64
2022-08-30T11:22:52.780Z,40.47
2022-08-30T11:23:52.721Z,41.57
2022-08-30T11:24:52.714Z,42.16
2022-08-30T11:25:53.370Z,40.86
2022-08-30T11:26:53.700Z,40.56
2022-08-30T11:27:52.684Z,41.55
2022-08-30T11:28:52.782Z,41.53
2022-08-30T11:29:52.663Z,41.43
2022-08-30T11:30:52.676Z,40.05
2022-08-30T11:31:52.644Z,42.54
2022-08-30T11:32:52.644Z,40.98
2022-08-30T11:33:52.655Z,41.79
2022-08-30T11:34:52.625Z,41.99
2022-08-30T11:35:52.625Z,42.68
2022-08-30T11:36:52.605Z,42.19
2022-08-30T11:37:52.595Z,42.21
2022-08-30T11:38:52.628Z,44.10
2022-08-30T11:39:52.589Z,42.30
2022-08-30T11:40:52.588Z,41.59
2022-08-30T11:41:52.569Z,41.25
2022-08-30T11:42:52.548Z,39.65
2022-08-30T11:43:53.238Z,41.85
2022-08-30T11:44:52.549Z,40.45
2022-08-30T11:45:52.719Z,39.65
2022-08-30T11:46:52.542Z,41.55
2022-08-30T11:47:52.510Z,40.76
2022-08-30T11:48:54.508Z,41.36
2022-08-30T11:49:52.494Z,41.95
2022-08-30T11:50:52.502Z,42.64
2022-08-30T11:52:08.559Z,41.53
2022-08-30T11:52:53.532Z,40.55
2022-08-30T11:53:52.469Z,40.96
2022-08-30T11:54:53.404Z,42.93
2022-08-30T11:55:52.459Z,41.73
2022-08-30T11:56:52.444Z,40.15
2022-08-30T11:57:52.430Z,41.04
2022-08-30T11:58:52.468Z,40.27
2022-08-30T11:59:52.434Z,40.69
2022-08-30T12:00:52.914Z,41.08
2022-08-30T12:01:52.457Z,41.28
2022-08-30T12:02:52.486Z,41.08
2022-08-30T12:03:52.367Z,40.96
2022-08-30T12:04:52.367Z,40.25
2022-08-30T12:05:52.369Z,40.94
2022-08-30T12:06:52.341Z,40.56
2022-08-30T12:07:52.353Z,43.31
2022-08-30T12:08:56.521Z,40.43
2022-08-30T12:09:53.345Z,40.84
2022-08-30T12:10:52.330Z,40.47
2022-08-30T12:11:52.310Z,41.85
2022-08-30T12:12:52.292Z,41.46
2022-08-30T12:13:52.329Z,41.17
2022-08-30T12:14:52.281Z,41.28
2022-08-30T12:15:52.339Z,41.00
2022-08-30T12:16:52.310Z,41.10
2022-08-30T12:17:52.363Z,40.33
2022-08-30T12:18:52.263Z,41.81
2022-08-30T12:19:52.246Z,42.99
2022-08-30T12:20:52.215Z,41.41
2022-08-30T12:21:52.202Z,41.61
2022-08-30T12:22:52.344Z,41.61
2022-08-30T12:23:52.186Z,41.04
2022-08-30T12:24:52.186Z,42.03
2022-08-30T12:25:52.166Z,41.93
2022-08-30T12:26:52.209Z,41.73
2022-08-30T12:27:52.147Z,40.74
2022-08-30T12:28:52.163Z,41.25
2022-08-30T12:29:52.142Z,43.83
2022-08-30T12:30:52.123Z,43.31
2022-08-30T12:31:52.147Z,43.10
2022-08-30T12:32:52.111Z,41.89
2022-08-30T12:33:52.092Z,41.97
2022-08-30T12:34:52.090Z,40.35
2022-08-30T12:35:52.083Z,41.91
2022-08-30T12:36:52.062Z,43.44
2022-08-30T12:37:52.064Z,38.40
2022-08-30T12:38:52.056Z,37.51
2022-08-30T12:39:52.696Z,37.34
2022-08-30T12:40:52.034Z,39.42
2022-08-30T12:41:52.015Z,38.16
2022-08-30T12:42:52.009Z,40.15
2022-08-30T12:43:52.009Z,40.66
2022-08-30T12:44:52.000Z,39.78
2022-08-30T12:45:52.037Z,43.45
2022-08-30T12:46:53.957Z,41.57
2022-08-30T12:47:52.950Z,41.28
2022-08-30T12:48:51.939Z,41.08
2022-08-30T12:49:51.949Z,40.80
2022-08-30T12:50:52.082Z,42.29
2022-08-30T12:51:51.940Z,40.70